sensor_id;sensor_type;location;lat;lon;timestamp;P1;durP1;ratioP1;P2;durP2;ratioP2
84711;SDS011;74937;44.534;18.684;2024-02-21T00:02:08;144.38;;;63.78;;
84711;SDS011;74937;44.534;18.684;2024-02-21T00:04:33;142.10;;;63.30;;
84711;SDS011;74937;44.534;18.684;2024-02-21T00:09:25;117.95;;;55.65;;
84711;SDS011;74937;44.534;18.684;2024-02-21T00:11:51;119.72;;;53.78;;
84711;SDS011;74937;44.534;18.684;2024-02-21T00:14:16;126.18;;;54.72;;
84711;SDS011;74937;44.534;18.684;2024-02-21T00:16:42;117.47;;;52.28;;
84711;SDS011;74937;44.534;18.684;2024-02-21T00:19:08;107.35;;;52.55;;
84711;SDS011;74937;44.534;18.684;2024-02-21T00:21:34;123.82;;;55.45;;
84711;SDS011;74937;44.534;18.684;2024-02-21T00:23:59;98.78;;;47.65;;
84711;SDS011;74937;44.534;18.684;2024-02-21T00:26:25;100.55;;;46.13;;
84711;SDS011;74937;44.534;18.684;2024-02-21T00:28:51;100.88;;;47.28;;
84711;SDS011;74937;44.534;18.684;2024-02-21T00:31:16;92.35;;;44.22;;
84711;SDS011;74937;44.534;18.684;2024-02-21T00:33:42;97.13;;;45.33;;
84711;SDS011;74937;44.534;18.684;2024-02-21T00:36:07;93.65;;;42.50;;
84711;SDS011;74937;44.534;18.684;2024-02-21T00:38:33;91.15;;;42.70;;
84711;SDS011;74937;44.534;18.684;2024-02-21T00:40:59;91.32;;;43.35;;
84711;SDS011;74937;44.534;18.684;2024-02-21T00:43:24;84.57;;;41.70;;
84711;SDS011;74937;44.534;18.684;2024-02-21T00:45:50;83.47;;;41.45;;
84711;SDS011;74937;44.534;18.684;2024-02-21T00:48:16;80.90;;;39.13;;
84711;SDS011;74937;44.534;18.684;2024-02-21T00:50:41;83.53;;;40.22;;
84711;SDS011;74937;44.534;18.684;2024-02-21T00:53:07;82.15;;;40.53;;
84711;SDS011;74937;44.534;18.684;2024-02-21T00:55:33;89.88;;;43.30;;
84711;SDS011;74937;44.534;18.684;2024-02-21T00:57:59;93.65;;;42.13;;
84711;SDS011;74937;44.534;18.684;2024-02-21T01:00:25;80.15;;;41.53;;
84711;SDS011;74937;44.534;18.684;2024-02-21T01:02:50;90.45;;;44.08;;
84711;SDS011;74937;44.534;18.684;2024-02-21T01:05:16;91.05;;;41.58;;
84711;SDS011;74937;44.534;18.684;2024-02-21T01:07:42;83.85;;;42.28;;
84711;SDS011;74937;44.534;18.684;2024-02-21T01:10:07;83.30;;;40.47;;
84711;SDS011;74937;44.534;18.684;2024-02-21T01:12:33;84.03;;;39.85;;
84711;SDS011;74937;44.534;18.684;2024-02-21T01:14:59;95.57;;;43.65;;
84711;SDS011;74937;44.534;18.684;2024-02-21T01:17:24;84.07;;;39.65;;
84711;SDS011;74937;44.534;18.684;2024-02-21T01:19:50;79.05;;;37.88;;
84711;SDS011;74937;44.534;18.684;2024-02-21T01:22:16;78.18;;;37.38;;
84711;SDS011;74937;44.534;18.684;2024-02-21T01:24:41;72.68;;;38.20;;
84711;SDS011;74937;44.534;18.684;2024-02-21T01:27:07;77.63;;;37.22;;
84711;SDS011;74937;44.534;18.684;2024-02-21T01:29:33;82.13;;;37.25;;
84711;SDS011;74937;44.534;18.684;2024-02-21T01:31:58;77.80;;;37.58;;
84711;SDS011;74937;44.534;18.684;2024-02-21T01:34:24;76.25;;;36.67;;
84711;SDS011;74937;44.534;18.684;2024-02-21T01:36:50;71.60;;;35.95;;
84711;SDS011;74937;44.534;18.684;2024-02-21T01:39:15;75.57;;;37.67;;
84711;SDS011;74937;44.534;18.684;2024-02-21T01:41:41;69.88;;;34.45;;
84711;SDS011;74937;44.534;18.684;2024-02-21T01:44:07;75.00;;;35.38;;
84711;SDS011;74937;44.534;18.684;2024-02-21T01:46:32;70.38;;;35.63;;
84711;SDS011;74937;44.534;18.684;2024-02-21T01:48:59;71.63;;;37.25;;
84711;SDS011;74937;44.534;18.684;2024-02-21T01:51:25;71.47;;;36.13;;
84711;SDS011;74937;44.534;18.684;2024-02-21T01:53:51;78.10;;;38.28;;
84711;SDS011;74937;44.534;18.684;2024-02-21T01:56:18;79.07;;;40.25;;
84711;SDS011;74937;44.534;18.684;2024-02-21T01:58:43;78.18;;;39.75;;
84711;SDS011;74937;44.534;18.684;2024-02-21T02:01:10;79.47;;;38.58;;
84711;SDS011;74937;44.534;18.684;2024-02-21T02:03:36;92.15;;;43.38;;
84711;SDS011;74937;44.534;18.684;2024-02-21T02:06:04;87.13;;;43.28;;
84711;SDS011;74937;44.534;18.684;2024-02-21T02:08:31;87.05;;;43.80;;
84711;SDS011;74937;44.534;18.684;2024-02-21T02:10:57;89.25;;;44.30;;
84711;SDS011;74937;44.534;18.684;2024-02-21T02:13:23;79.95;;;40.65;;
84711;SDS011;74937;44.534;18.684;2024-02-21T02:15:49;81.95;;;40.00;;
84711;SDS011;74937;44.534;18.684;2024-02-21T02:18:15;82.45;;;40.25;;
84711;SDS011;74937;44.534;18.684;2024-02-21T02:20:42;75.13;;;39.95;;
84711;SDS011;74937;44.534;18.684;2024-02-21T02:23:20;87.63;;;40.88;;
84711;SDS011;74937;44.534;18.684;2024-02-21T02:25:55;87.15;;;41.20;;
84711;SDS011;74937;44.534;18.684;2024-02-21T02:28:21;82.53;;;39.85;;
84711;SDS011;74937;44.534;18.684;2024-02-21T02:30:47;92.30;;;43.05;;
84711;SDS011;74937;44.534;18.684;2024-02-21T02:35:39;92.30;;;43.22;;
84711;SDS011;74937;44.534;18.684;2024-02-21T02:38:05;85.78;;;41.33;;
84711;SDS011;74937;44.534;18.684;2024-02-21T02:40:32;85.68;;;42.97;;
84711;SDS011;74937;44.534;18.684;2024-02-21T02:43:00;94.65;;;43.35;;
84711;SDS011;74937;44.534;18.684;2024-02-21T02:45:25;90.20;;;42.58;;
84711;SDS011;74937;44.534;18.684;2024-02-21T02:47:55;88.72;;;43.08;;
84711;SDS011;74937;44.534;18.684;2024-02-21T02:50:25;89.75;;;43.05;;
84711;SDS011;74937;44.534;18.684;2024-02-21T02:52:52;90.63;;;45.58;;
84711;SDS011;74937;44.534;18.684;2024-02-21T02:55:19;95.75;;;45.83;;
84711;SDS011;74937;44.534;18.684;2024-02-21T02:57:44;91.00;;;44.22;;
84711;SDS011;74937;44.534;18.684;2024-02-21T03:00:10;96.55;;;47.20;;
84711;SDS011;74937;44.534;18.684;2024-02-21T03:05:19;99.30;;;46.08;;
84711;SDS011;74937;44.534;18.684;2024-02-21T03:07:46;88.20;;;42.75;;
84711;SDS011;74937;44.534;18.684;2024-02-21T03:10:12;86.22;;;42.63;;
84711;SDS011;74937;44.534;18.684;2024-02-21T03:12:39;79.70;;;41.03;;
84711;SDS011;74937;44.534;18.684;2024-02-21T03:15:05;91.72;;;44.38;;
84711;SDS011;74937;44.534;18.684;2024-02-21T03:19:59;89.82;;;43.83;;
84711;SDS011;74937;44.534;18.684;2024-02-21T03:22:25;94.65;;;44.22;;
84711;SDS011;74937;44.534;18.684;2024-02-21T03:24:51;94.10;;;47.08;;
84711;SDS011;74937;44.534;18.684;2024-02-21T03:27:17;100.15;;;46.63;;
84711;SDS011;74937;44.534;18.684;2024-02-21T03:29:42;94.93;;;44.97;;
84711;SDS011;74937;44.534;18.684;2024-02-21T03:32:08;103.22;;;46.83;;
84711;SDS011;74937;44.534;18.684;2024-02-21T03:34:34;105.55;;;50.20;;
84711;SDS011;74937;44.534;18.684;2024-02-21T03:37:00;111.53;;;49.60;;
84711;SDS011;74937;44.534;18.684;2024-02-21T03:39:26;103.15;;;48.67;;
84711;SDS011;74937;44.534;18.684;2024-02-21T03:41:51;101.70;;;47.03;;
84711;SDS011;74937;44.534;18.684;2024-02-21T03:44:17;90.70;;;47.72;;
84711;SDS011;74937;44.534;18.684;2024-02-21T03:46:43;91.60;;;47.25;;
84711;SDS011;74937;44.534;18.684;2024-02-21T03:49:08;90.18;;;45.35;;
84711;SDS011;74937;44.534;18.684;2024-02-21T03:51:34;90.75;;;43.45;;
84711;SDS011;74937;44.534;18.684;2024-02-21T03:54:00;78.35;;;42.25;;
84711;SDS011;74937;44.534;18.684;2024-02-21T03:56:26;88.05;;;42.15;;
84711;SDS011;74937;44.534;18.684;2024-02-21T03:58:51;82.75;;;43.05;;
84711;SDS011;74937;44.534;18.684;2024-02-21T04:01:17;86.15;;;44.90;;
84711;SDS011;74937;44.534;18.684;2024-02-21T04:03:45;94.95;;;46.33;;
84711;SDS011;74937;44.534;18.684;2024-02-21T04:06:11;100.70;;;46.80;;
84711;SDS011;74937;44.534;18.684;2024-02-21T04:08:36;91.97;;;45.47;;
84711;SDS011;74937;44.534;18.684;2024-02-21T04:11:02;89.80;;;43.25;;
84711;SDS011;74937;44.534;18.684;2024-02-21T04:13:27;90.38;;;44.65;;
84711;SDS011;74937;44.534;18.684;2024-02-21T04:15:53;90.32;;;46.88;;
84711;SDS011;74937;44.534;18.684;2024-02-21T04:18:19;99.80;;;49.83;;
84711;SDS011;74937;44.534;18.684;2024-02-21T04:20:44;97.53;;;46.90;;
84711;SDS011;74937;44.534;18.684;2024-02-21T04:23:10;99.68;;;48.72;;
84711;SDS011;74937;44.534;18.684;2024-02-21T04:25:36;106.18;;;50.72;;
84711;SDS011;74937;44.534;18.684;2024-02-21T04:28:02;102.65;;;53.05;;
84711;SDS011;74937;44.534;18.684;2024-02-21T04:30:28;107.55;;;52.60;;
84711;SDS011;74937;44.534;18.684;2024-02-21T04:32:53;106.43;;;49.08;;
84711;SDS011;74937;44.534;18.684;2024-02-21T04:35:19;108.28;;;52.05;;
84711;SDS011;74937;44.534;18.684;2024-02-21T04:37:45;108.80;;;50.50;;
84711;SDS011;74937;44.534;18.684;2024-02-21T04:40:11;104.90;;;50.42;;
84711;SDS011;74937;44.534;18.684;2024-02-21T04:42:36;101.43;;;49.80;;
84711;SDS011;74937;44.534;18.684;2024-02-21T04:45:02;85.38;;;44.78;;
84711;SDS011;74937;44.534;18.684;2024-02-21T04:47:28;76.15;;;41.28;;
84711;SDS011;74937;44.534;18.684;2024-02-21T04:49:54;91.18;;;46.42;;
84711;SDS011;74937;44.534;18.684;2024-02-21T04:52:19;94.72;;;47.60;;
84711;SDS011;74937;44.534;18.684;2024-02-21T04:54:45;88.22;;;47.63;;
84711;SDS011;74937;44.534;18.684;2024-02-21T04:57:10;92.07;;;46.97;;
84711;SDS011;74937;44.534;18.684;2024-02-21T04:59:36;81.95;;;43.70;;
84711;SDS011;74937;44.534;18.684;2024-02-21T05:02:02;93.38;;;45.92;;
84711;SDS011;74937;44.534;18.684;2024-02-21T05:04:28;108.05;;;53.33;;
84711;SDS011;74937;44.534;18.684;2024-02-21T05:06:53;100.85;;;51.22;;
84711;SDS011;74937;44.534;18.684;2024-02-21T05:09:19;97.60;;;48.58;;
84711;SDS011;74937;44.534;18.684;2024-02-21T05:11:45;97.07;;;48.78;;
84711;SDS011;74937;44.534;18.684;2024-02-21T05:14:11;92.00;;;49.22;;
84711;SDS011;74937;44.534;18.684;2024-02-21T05:16:38;93.28;;;49.25;;
84711;SDS011;74937;44.534;18.684;2024-02-21T05:19:04;106.03;;;50.88;;
84711;SDS011;74937;44.534;18.684;2024-02-21T05:21:30;107.40;;;53.55;;
84711;SDS011;74937;44.534;18.684;2024-02-21T05:23:56;127.45;;;58.85;;
84711;SDS011;74937;44.534;18.684;2024-02-21T05:26:22;118.38;;;57.10;;
84711;SDS011;74937;44.534;18.684;2024-02-21T05:28:48;112.90;;;53.75;;
84711;SDS011;74937;44.534;18.684;2024-02-21T05:31:15;94.05;;;50.78;;
84711;SDS011;74937;44.534;18.684;2024-02-21T05:33:42;103.05;;;51.60;;
84711;SDS011;74937;44.534;18.684;2024-02-21T05:36:11;98.28;;;48.90;;
84711;SDS011;74937;44.534;18.684;2024-02-21T05:38:37;103.82;;;50.65;;
84711;SDS011;74937;44.534;18.684;2024-02-21T05:41:03;106.88;;;51.10;;
84711;SDS011;74937;44.534;18.684;2024-02-21T05:43:29;110.82;;;53.60;;
84711;SDS011;74937;44.534;18.684;2024-02-21T05:45:55;106.80;;;52.35;;
84711;SDS011;74937;44.534;18.684;2024-02-21T05:48:24;101.03;;;51.70;;
84711;SDS011;74937;44.534;18.684;2024-02-21T05:50:50;103.07;;;51.35;;
84711;SDS011;74937;44.534;18.684;2024-02-21T05:53:16;108.00;;;53.42;;
84711;SDS011;74937;44.534;18.684;2024-02-21T05:55:42;104.80;;;54.78;;
84711;SDS011;74937;44.534;18.684;2024-02-21T05:58:08;106.57;;;51.95;;
84711;SDS011;74937;44.534;18.684;2024-02-21T06:00:39;105.18;;;51.08;;
84711;SDS011;74937;44.534;18.684;2024-02-21T06:03:04;103.07;;;54.80;;
84711;SDS011;74937;44.534;18.684;2024-02-21T06:05:30;125.03;;;57.95;;
84711;SDS011;74937;44.534;18.684;2024-02-21T06:07:57;117.05;;;56.97;;
84711;SDS011;74937;44.534;18.684;2024-02-21T06:10:22;114.93;;;56.00;;
84711;SDS011;74937;44.534;18.684;2024-02-21T06:12:48;109.78;;;54.58;;
84711;SDS011;74937;44.534;18.684;2024-02-21T06:15:14;109.43;;;55.88;;
84711;SDS011;74937;44.534;18.684;2024-02-21T06:17:39;108.72;;;53.60;;
84711;SDS011;74937;44.534;18.684;2024-02-21T06:20:06;107.63;;;54.13;;
84711;SDS011;74937;44.534;18.684;2024-02-21T06:22:32;109.82;;;54.20;;
84711;SDS011;74937;44.534;18.684;2024-02-21T06:24:58;113.35;;;57.05;;
84711;SDS011;74937;44.534;18.684;2024-02-21T06:27:24;109.15;;;56.20;;
84711;SDS011;74937;44.534;18.684;2024-02-21T06:29:50;115.38;;;57.53;;
84711;SDS011;74937;44.534;18.684;2024-02-21T06:32:16;112.10;;;58.15;;
84711;SDS011;74937;44.534;18.684;2024-02-21T06:34:42;122.03;;;61.05;;
84711;SDS011;74937;44.534;18.684;2024-02-21T06:37:07;133.55;;;62.00;;
84711;SDS011;74937;44.534;18.684;2024-02-21T06:39:34;125.38;;;61.25;;
84711;SDS011;74937;44.534;18.684;2024-02-21T06:42:02;123.82;;;59.50;;
84711;SDS011;74937;44.534;18.684;2024-02-21T06:44:28;110.90;;;55.22;;
84711;SDS011;74937;44.534;18.684;2024-02-21T06:46:54;105.22;;;51.47;;
84711;SDS011;74937;44.534;18.684;2024-02-21T06:49:20;104.13;;;51.25;;
84711;SDS011;74937;44.534;18.684;2024-02-21T06:51:45;85.97;;;44.20;;
84711;SDS011;74937;44.534;18.684;2024-02-21T06:54:11;82.60;;;43.13;;
84711;SDS011;74937;44.534;18.684;2024-02-21T06:56:37;73.75;;;38.50;;
84711;SDS011;74937;44.534;18.684;2024-02-21T06:59:03;82.43;;;40.75;;
84711;SDS011;74937;44.534;18.684;2024-02-21T07:01:32;87.75;;;41.60;;
84711;SDS011;74937;44.534;18.684;2024-02-21T07:03:58;91.43;;;46.40;;
84711;SDS011;74937;44.534;18.684;2024-02-21T07:06:23;92.07;;;46.67;;
84711;SDS011;74937;44.534;18.684;2024-02-21T07:08:49;86.85;;;43.92;;
84711;SDS011;74937;44.534;18.684;2024-02-21T07:11:15;78.03;;;40.67;;
84711;SDS011;74937;44.534;18.684;2024-02-21T07:13:40;82.85;;;42.42;;
84711;SDS011;74937;44.534;18.684;2024-02-21T07:16:07;99.80;;;48.97;;
84711;SDS011;74937;44.534;18.684;2024-02-21T07:18:33;112.53;;;53.08;;
84711;SDS011;74937;44.534;18.684;2024-02-21T07:20:59;109.20;;;55.47;;
84711;SDS011;74937;44.534;18.684;2024-02-21T07:23:24;121.35;;;57.67;;
84711;SDS011;74937;44.534;18.684;2024-02-21T07:25:50;121.15;;;58.78;;
84711;SDS011;74937;44.534;18.684;2024-02-21T07:28:16;117.97;;;56.95;;
84711;SDS011;74937;44.534;18.684;2024-02-21T07:30:42;114.35;;;55.15;;
84711;SDS011;74937;44.534;18.684;2024-02-21T07:33:08;110.88;;;51.63;;
84711;SDS011;74937;44.534;18.684;2024-02-21T07:35:34;197.95;;;102.78;;
84711;SDS011;74937;44.534;18.684;2024-02-21T07:38:05;120.50;;;58.40;;
84711;SDS011;74937;44.534;18.684;2024-02-21T07:40:31;107.75;;;55.70;;
84711;SDS011;74937;44.534;18.684;2024-02-21T07:42:57;115.65;;;56.05;;
84711;SDS011;74937;44.534;18.684;2024-02-21T07:45:22;119.63;;;56.55;;
84711;SDS011;74937;44.534;18.684;2024-02-21T07:47:49;102.57;;;54.58;;
84711;SDS011;74937;44.534;18.684;2024-02-21T07:50:15;72.90;;;39.47;;
84711;SDS011;74937;44.534;18.684;2024-02-21T07:52:41;74.57;;;34.95;;
84711;SDS011;74937;44.534;18.684;2024-02-21T07:55:08;67.25;;;33.70;;
84711;SDS011;74937;44.534;18.684;2024-02-21T07:57:35;65.40;;;32.58;;
84711;SDS011;74937;44.534;18.684;2024-02-21T08:00:01;62.55;;;29.42;;
84711;SDS011;74937;44.534;18.684;2024-02-21T08:02:37;58.05;;;29.08;;
84711;SDS011;74937;44.534;18.684;2024-02-21T08:05:03;62.40;;;28.42;;
84711;SDS011;74937;44.534;18.684;2024-02-21T08:07:29;56.55;;;27.38;;
84711;SDS011;74937;44.534;18.684;2024-02-21T08:09:56;52.97;;;24.13;;
84711;SDS011;74937;44.534;18.684;2024-02-21T08:12:22;49.53;;;24.33;;
84711;SDS011;74937;44.534;18.684;2024-02-21T08:14:47;53.05;;;28.08;;
84711;SDS011;74937;44.534;18.684;2024-02-21T08:17:13;49.53;;;23.73;;
84711;SDS011;74937;44.534;18.684;2024-02-21T08:19:39;42.95;;;18.95;;
84711;SDS011;74937;44.534;18.684;2024-02-21T08:22:04;40.47;;;19.75;;
84711;SDS011;74937;44.534;18.684;2024-02-21T08:24:30;31.95;;;16.83;;
84711;SDS011;74937;44.534;18.684;2024-02-21T08:26:55;38.20;;;19.45;;
84711;SDS011;74937;44.534;18.684;2024-02-21T08:29:21;43.70;;;20.58;;
84711;SDS011;74937;44.534;18.684;2024-02-21T08:31:47;40.85;;;21.25;;
84711;SDS011;74937;44.534;18.684;2024-02-21T08:34:12;37.85;;;17.40;;
84711;SDS011;74937;44.534;18.684;2024-02-21T08:36:38;30.63;;;15.30;;
84711;SDS011;74937;44.534;18.684;2024-02-21T08:39:04;27.00;;;13.75;;
84711;SDS011;74937;44.534;18.684;2024-02-21T08:41:33;36.17;;;15.60;;
84711;SDS011;74937;44.534;18.684;2024-02-21T08:43:59;38.83;;;17.33;;
84711;SDS011;74937;44.534;18.684;2024-02-21T08:46:25;42.38;;;19.58;;
84711;SDS011;74937;44.534;18.684;2024-02-21T08:48:52;48.05;;;21.90;;
84711;SDS011;74937;44.534;18.684;2024-02-21T08:51:18;43.17;;;23.08;;
84711;SDS011;74937;44.534;18.684;2024-02-21T08:53:44;39.90;;;20.27;;
84711;SDS011;74937;44.534;18.684;2024-02-21T08:58:36;41.50;;;17.40;;
84711;SDS011;74937;44.534;18.684;2024-02-21T09:01:05;39.65;;;20.23;;
84711;SDS011;74937;44.534;18.684;2024-02-21T09:03:38;46.75;;;21.85;;
84711;SDS011;74937;44.534;18.684;2024-02-21T09:06:04;47.38;;;23.00;;
84711;SDS011;74937;44.534;18.684;2024-02-21T09:08:31;43.92;;;20.42;;
84711;SDS011;74937;44.534;18.684;2024-02-21T09:13:23;47.40;;;23.05;;
84711;SDS011;74937;44.534;18.684;2024-02-21T09:15:49;44.00;;;21.60;;
84711;SDS011;74937;44.534;18.684;2024-02-21T09:18:15;42.67;;;20.90;;
84711;SDS011;74937;44.534;18.684;2024-02-21T09:20:42;46.55;;;21.15;;
84711;SDS011;74937;44.534;18.684;2024-02-21T09:23:08;45.53;;;21.00;;
84711;SDS011;74937;44.534;18.684;2024-02-21T09:25:34;49.47;;;23.90;;
84711;SDS011;74937;44.534;18.684;2024-02-21T09:28:01;46.70;;;22.52;;
84711;SDS011;74937;44.534;18.684;2024-02-21T09:30:27;44.75;;;21.58;;
84711;SDS011;74937;44.534;18.684;2024-02-21T09:32:53;45.28;;;21.67;;
84711;SDS011;74937;44.534;18.684;2024-02-21T09:35:18;47.60;;;23.50;;
84711;SDS011;74937;44.534;18.684;2024-02-21T09:37:44;41.33;;;22.80;;
84711;SDS011;74937;44.534;18.684;2024-02-21T09:40:10;34.28;;;18.10;;
84711;SDS011;74937;44.534;18.684;2024-02-21T09:42:40;35.80;;;18.90;;
84711;SDS011;74937;44.534;18.684;2024-02-21T09:45:27;46.30;;;21.80;;
84711;SDS011;74937;44.534;18.684;2024-02-21T09:50:23;50.00;;;20.92;;
84711;SDS011;74937;44.534;18.684;2024-02-21T09:52:50;30.83;;;13.43;;
84711;SDS011;74937;44.534;18.684;2024-02-21T09:55:18;18.08;;;9.48;;
84711;SDS011;74937;44.534;18.684;2024-02-21T09:57:44;16.13;;;8.73;;
84711;SDS011;74937;44.534;18.684;2024-02-21T10:00:10;14.15;;;7.47;;
84711;SDS011;74937;44.534;18.684;2024-02-21T10:02:40;14.60;;;6.90;;
84711;SDS011;74937;44.534;18.684;2024-02-21T10:05:06;12.02;;;7.13;;
84711;SDS011;74937;44.534;18.684;2024-02-21T10:07:33;12.27;;;7.25;;
84711;SDS011;74937;44.534;18.684;2024-02-21T10:10:02;13.77;;;6.85;;
84711;SDS011;74937;44.534;18.684;2024-02-21T10:12:29;18.40;;;8.43;;
84711;SDS011;74937;44.534;18.684;2024-02-21T10:15:01;18.02;;;9.23;;
84711;SDS011;74937;44.534;18.684;2024-02-21T10:17:27;22.58;;;11.35;;
84711;SDS011;74937;44.534;18.684;2024-02-21T10:19:53;25.20;;;12.80;;
84711;SDS011;74937;44.534;18.684;2024-02-21T10:22:18;28.30;;;14.10;;
84711;SDS011;74937;44.534;18.684;2024-02-21T10:24:46;25.83;;;14.00;;
84711;SDS011;74937;44.534;18.684;2024-02-21T10:27:12;22.15;;;11.43;;
84711;SDS011;74937;44.534;18.684;2024-02-21T10:29:38;27.90;;;12.85;;
84711;SDS011;74937;44.534;18.684;2024-02-21T10:32:13;33.25;;;14.48;;
84711;SDS011;74937;44.534;18.684;2024-02-21T10:34:39;34.15;;;13.23;;
84711;SDS011;74937;44.534;18.684;2024-02-21T10:37:07;33.13;;;14.23;;
84711;SDS011;74937;44.534;18.684;2024-02-21T10:39:34;37.17;;;15.45;;
84711;SDS011;74937;44.534;18.684;2024-02-21T10:42:01;36.83;;;18.13;;
84711;SDS011;74937;44.534;18.684;2024-02-21T10:44:29;33.13;;;15.85;;
84711;SDS011;74937;44.534;18.684;2024-02-21T10:46:58;37.35;;;15.98;;
84711;SDS011;74937;44.534;18.684;2024-02-21T10:49:27;41.22;;;18.20;;
84711;SDS011;74937;44.534;18.684;2024-02-21T10:52:02;44.05;;;22.55;;
84711;SDS011;74937;44.534;18.684;2024-02-21T10:57:13;42.75;;;19.55;;
84711;SDS011;74937;44.534;18.684;2024-02-21T10:59:40;40.00;;;18.73;;
84711;SDS011;74937;44.534;18.684;2024-02-21T11:02:06;28.33;;;16.13;;
84711;SDS011;74937;44.534;18.684;2024-02-21T11:04:32;27.55;;;14.20;;
84711;SDS011;74937;44.534;18.684;2024-02-21T11:07:03;27.38;;;14.52;;
84711;SDS011;74937;44.534;18.684;2024-02-21T11:09:31;32.78;;;15.93;;
84711;SDS011;74937;44.534;18.684;2024-02-21T11:12:04;33.58;;;16.98;;
84711;SDS011;74937;44.534;18.684;2024-02-21T11:14:31;31.48;;;16.83;;
84711;SDS011;74937;44.534;18.684;2024-02-21T11:17:02;25.00;;;13.65;;
84711;SDS011;74937;44.534;18.684;2024-02-21T11:19:29;23.20;;;13.63;;
84711;SDS011;74937;44.534;18.684;2024-02-21T11:21:56;24.55;;;12.57;;
84711;SDS011;74937;44.534;18.684;2024-02-21T11:24:30;41.55;;;22.73;;
84711;SDS011;74937;44.534;18.684;2024-02-21T11:26:56;23.15;;;14.00;;
84711;SDS011;74937;44.534;18.684;2024-02-21T11:29:39;21.00;;;11.25;;
84711;SDS011;74937;44.534;18.684;2024-02-21T11:32:08;22.83;;;13.68;;
84711;SDS011;74937;44.534;18.684;2024-02-21T11:34:36;21.00;;;13.07;;
84711;SDS011;74937;44.534;18.684;2024-02-21T11:37:02;19.52;;;12.15;;
84711;SDS011;74937;44.534;18.684;2024-02-21T11:39:43;20.88;;;11.32;;
84711;SDS011;74937;44.534;18.684;2024-02-21T11:42:09;17.90;;;10.13;;
84711;SDS011;74937;44.534;18.684;2024-02-21T11:44:36;17.70;;;10.45;;
84711;SDS011;74937;44.534;18.684;2024-02-21T11:47:06;16.20;;;9.48;;
84711;SDS011;74937;44.534;18.684;2024-02-21T11:49:35;20.85;;;10.23;;
84711;SDS011;74937;44.534;18.684;2024-02-21T11:52:03;16.10;;;9.25;;
84711;SDS011;74937;44.534;18.684;2024-02-21T11:54:30;13.23;;;7.88;;
84711;SDS011;74937;44.534;18.684;2024-02-21T11:56:56;17.30;;;8.18;;
84711;SDS011;74937;44.534;18.684;2024-02-21T11:59:21;12.52;;;7.00;;
84711;SDS011;74937;44.534;18.684;2024-02-21T12:01:48;12.95;;;6.90;;
84711;SDS011;74937;44.534;18.684;2024-02-21T12:04:14;15.43;;;6.75;;
84711;SDS011;74937;44.534;18.684;2024-02-21T12:06:43;10.68;;;6.20;;
84711;SDS011;74937;44.534;18.684;2024-02-21T12:09:09;9.23;;;5.45;;
84711;SDS011;74937;44.534;18.684;2024-02-21T12:11:38;9.75;;;4.80;;
84711;SDS011;74937;44.534;18.684;2024-02-21T12:14:04;12.45;;;6.25;;
84711;SDS011;74937;44.534;18.684;2024-02-21T12:16:30;8.30;;;4.60;;
84711;SDS011;74937;44.534;18.684;2024-02-21T12:18:57;8.40;;;4.55;;
84711;SDS011;74937;44.534;18.684;2024-02-21T12:21:24;10.90;;;5.20;;
84711;SDS011;74937;44.534;18.684;2024-02-21T12:23:55;9.45;;;5.03;;
84711;SDS011;74937;44.534;18.684;2024-02-21T12:26:21;11.68;;;4.97;;
84711;SDS011;74937;44.534;18.684;2024-02-21T12:28:47;11.32;;;4.95;;
84711;SDS011;74937;44.534;18.684;2024-02-21T12:31:13;11.73;;;6.13;;
84711;SDS011;74937;44.534;18.684;2024-02-21T12:33:39;15.18;;;6.10;;
84711;SDS011;74937;44.534;18.684;2024-02-21T12:36:05;13.07;;;6.90;;
84711;SDS011;74937;44.534;18.684;2024-02-21T12:38:31;15.75;;;7.75;;
84711;SDS011;74937;44.534;18.684;2024-02-21T12:40:56;14.95;;;8.23;;
84711;SDS011;74937;44.534;18.684;2024-02-21T12:43:22;14.50;;;8.48;;
84711;SDS011;74937;44.534;18.684;2024-02-21T12:45:48;19.80;;;9.13;;
84711;SDS011;74937;44.534;18.684;2024-02-21T12:48:14;22.27;;;9.95;;
84711;SDS011;74937;44.534;18.684;2024-02-21T12:50:41;17.83;;;9.18;;
84711;SDS011;74937;44.534;18.684;2024-02-21T12:53:15;10.93;;;6.65;;
84711;SDS011;74937;44.534;18.684;2024-02-21T12:55:41;10.55;;;5.70;;
84711;SDS011;74937;44.534;18.684;2024-02-21T12:58:06;13.52;;;6.20;;
84711;SDS011;74937;44.534;18.684;2024-02-21T13:00:32;12.40;;;6.07;;
84711;SDS011;74937;44.534;18.684;2024-02-21T13:02:58;17.77;;;7.40;;
84711;SDS011;74937;44.534;18.684;2024-02-21T13:05:24;12.98;;;7.53;;
84711;SDS011;74937;44.534;18.684;2024-02-21T13:07:49;14.23;;;7.53;;
84711;SDS011;74937;44.534;18.684;2024-02-21T13:10:15;14.55;;;8.25;;
84711;SDS011;74937;44.534;18.684;2024-02-21T13:12:41;16.67;;;8.48;;
84711;SDS011;74937;44.534;18.684;2024-02-21T13:15:07;19.70;;;9.52;;
84711;SDS011;74937;44.534;18.684;2024-02-21T13:17:35;16.90;;;9.07;;
84711;SDS011;74937;44.534;18.684;2024-02-21T13:20:00;14.35;;;8.52;;
84711;SDS011;74937;44.534;18.684;2024-02-21T13:22:26;13.63;;;8.18;;
84711;SDS011;74937;44.534;18.684;2024-02-21T13:24:52;15.00;;;7.47;;
84711;SDS011;74937;44.534;18.684;2024-02-21T13:27:17;16.75;;;9.15;;
84711;SDS011;74937;44.534;18.684;2024-02-21T13:29:43;14.32;;;7.95;;
84711;SDS011;74937;44.534;18.684;2024-02-21T13:32:10;14.52;;;7.43;;
84711;SDS011;74937;44.534;18.684;2024-02-21T13:34:36;16.33;;;7.88;;
84711;SDS011;74937;44.534;18.684;2024-02-21T13:37:01;16.27;;;6.80;;
84711;SDS011;74937;44.534;18.684;2024-02-21T13:39:27;14.65;;;6.93;;
84711;SDS011;74937;44.534;18.684;2024-02-21T13:41:53;11.50;;;6.30;;
84711;SDS011;74937;44.534;18.684;2024-02-21T13:44:18;12.82;;;7.28;;
84711;SDS011;74937;44.534;18.684;2024-02-21T13:46:44;13.88;;;6.75;;
84711;SDS011;74937;44.534;18.684;2024-02-21T13:49:10;12.15;;;6.47;;
84711;SDS011;74937;44.534;18.684;2024-02-21T13:51:35;12.23;;;5.45;;
84711;SDS011;74937;44.534;18.684;2024-02-21T13:54:04;13.35;;;6.55;;
84711;SDS011;74937;44.534;18.684;2024-02-21T13:56:30;9.80;;;5.28;;
84711;SDS011;74937;44.534;18.684;2024-02-21T13:58:57;10.90;;;5.47;;
84711;SDS011;74937;44.534;18.684;2024-02-21T14:01:25;14.70;;;6.55;;
84711;SDS011;74937;44.534;18.684;2024-02-21T14:03:53;15.57;;;6.50;;
84711;SDS011;74937;44.534;18.684;2024-02-21T14:06:19;10.77;;;5.88;;
84711;SDS011;74937;44.534;18.684;2024-02-21T14:08:44;11.65;;;5.38;;
84711;SDS011;74937;44.534;18.684;2024-02-21T14:11:10;10.15;;;5.38;;
84711;SDS011;74937;44.534;18.684;2024-02-21T14:13:36;9.40;;;5.45;;
84711;SDS011;74937;44.534;18.684;2024-02-21T14:16:02;11.13;;;6.15;;
84711;SDS011;74937;44.534;18.684;2024-02-21T14:18:28;11.27;;;5.90;;
84711;SDS011;74937;44.534;18.684;2024-02-21T14:20:53;12.05;;;5.05;;
84711;SDS011;74937;44.534;18.684;2024-02-21T14:23:19;14.65;;;7.50;;
84711;SDS011;74937;44.534;18.684;2024-02-21T14:25:44;13.57;;;7.00;;